Time;durP1;ratioP1;P1;durP2;ratioP2;P2;SDS_P1;SDS_P2;PMS_P1;PMS_P2;Temp;Humidity;BMP_temperature;BMP_pressure;BME280_temperature;BME280_humidity;BME280_pressure;Samples;Min_cycle;Max_cycle;Signal;HPM_P1;HPM_P2
2023/08/16 00:01:52;;;;;;;10.82;7.32;;;;;;;;;;5114993;28;20027;-85
2023/08/16 00:04:18;;;;;;;11.30;6.53;;;;;;;;;;5094447;28;20065;-85
2023/08/16 00:06:45;;;;;;;11.18;6.50;;;;;;;;;;5102877;28;20053;-86
2023/08/16 00:09:11;;;;;;;10.93;6.85;;;;;;;;;;5084126;28;20513;-85
2023/08/16 00:11:37;;;;;;;11.15;6.60;;;;;;;;;;5109883;28;20428;-86
2023/08/16 00:14:04;;;;;;;9.65;7.20;;;;;;;;;;5109284;28;20469;-84
2023/08/16 00:16:30;;;;;;;13.07;7.10;;;;;;;;;;5095918;28;20485;-85
2023/08/16 00:18:56;;;;;;;16.00;6.90;;;;;;;;;;5114354;28;20061;-86
2023/08/16 00:21:22;;;;;;;13.50;6.85;;;;;;;;;;5127064;28;20024;-86
2023/08/16 00:23:48;;;;;;;7.95;7.15;;;;;;;;;;5099795;28;20019;-86
2023/08/16 00:26:14;;;;;;;12.02;6.82;;;;;;;;;;5085527;28;20060;-85
2023/08/16 00:28:41;;;;;;;10.50;7.10;;;;;;;;;;5103578;28;20019;-85
2023/08/16 00:31:08;;;;;;;11.68;7.80;;;;;;;;;;5116738;28;20027;-86
2023/08/16 00:33:34;;;;;;;11.00;7.65;;;;;;;;;;5082069;28;20024;-86
2023/08/16 00:36:00;;;;;;;10.13;5.88;;;;;;;;;;5096972;28;20024;-86
2023/08/16 00:38:26;;;;;;;9.43;7.00;;;;;;;;;;5102876;28;20477;-85
2023/08/16 00:40:52;;;;;;;7.97;7.18;;;;;;;;;;5105961;28;20031;-85
2023/08/16 00:43:19;;;;;;;10.27;6.65;;;;;;;;;;5083849;28;20040;-85
2023/08/16 00:45:45;;;;;;;14.23;7.35;;;;;;;;;;5091147;28;20019;-84
2023/08/16 00:48:13;;;;;;;8.88;7.25;;;;;;;;;;5102634;28;20039;-85
2023/08/16 00:50:39;;;;;;;10.82;6.63;;;;;;;;;;5105756;28;20016;-85
2023/08/16 00:53:06;;;;;;;10.23;6.85;;;;;;;;;;5082512;28;20020;-85
2023/08/16 00:55:33;;;;;;;11.60;7.55;;;;;;;;;;5078742;28;20020;-85
2023/08/16 00:57:59;;;;;;;11.32;6.93;;;;;;;;;;5096125;28;20036;-87
2023/08/16 01:00:26;;;;;;;11.32;6.63;;;;;;;;;;5107510;28;20024;-85
2023/08/16 01:02:52;;;;;;;12.23;7.10;;;;;;;;;;5095823;28;20057;-84
2023/08/16 01:05:18;;;;;;;8.73;6.72;;;;;;;;;;5077975;28;20042;-85
2023/08/16 01:07:46;;;;;;;9.10;7.97;;;;;;;;;;5110906;28;20035;-85
2023/08/16 01:10:12;;;;;;;11.10;7.55;;;;;;;;;;5096514;28;20109;-87
2023/08/16 01:12:44;;;;;;;10.05;6.85;;;;;;;;;;5081997;28;20029;-82
2023/08/16 01:15:16;;;;;;;12.52;7.20;;;;;;;;;;5076665;28;20024;-84
2023/08/16 01:17:43;;;;;;;8.82;6.93;;;;;;;;;;5108926;28;20361;-85
2023/08/16 01:20:10;;;;;;;12.93;7.25;;;;;;;;;;5096576;28;20095;-86
2023/08/16 01:22:43;;;;;;;10.73;7.53;;;;;;;;;;5077009;28;20090;-85
2023/08/16 01:25:12;;;;;;;10.25;6.82;;;;;;;;;;5079909;28;20031;-86
2023/08/16 01:27:38;;;;;;;14.75;7.32;;;;;;;;;;5103094;28;20023;-85
2023/08/16 01:30:06;;;;;;;13.35;7.10;;;;;;;;;;5103125;28;20020;-86
2023/08/16 01:32:32;;;;;;;16.92;6.82;;;;;;;;;;5096735;28;20031;-84
2023/08/16 01:34:58;;;;;;;8.05;7.25;;;;;;;;;;5110375;28;20026;-86
2023/08/16 01:37:25;;;;;;;7.90;6.82;;;;;;;;;;5106264;28;20091;-85
2023/08/16 01:39:52;;;;;;;12.70;7.17;;;;;;;;;;5095535;28;20015;-85
2023/08/16 01:42:18;;;;;;;12.63;8.23;;;;;;;;;;5096302;28;20503;-85
2023/08/16 01:44:46;;;;;;;8.88;7.00;;;;;;;;;;5112160;28;20023;-86
2023/08/16 01:47:13;;;;;;;9.93;6.88;;;;;;;;;;5081838;28;20115;-88
2023/08/16 01:49:41;;;;;;;13.00;7.88;;;;;;;;;;5108501;28;20021;-86
2023/08/16 01:52:07;;;;;;;14.05;8.02;;;;;;;;;;5105673;28;20019;-87
2023/08/16 01:54:34;;;;;;;12.23;7.88;;;;;;;;;;5121361;28;20034;-87
2023/08/16 01:57:00;;;;;;;12.65;7.25;;;;;;;;;;5112774;28;20042;-86
2023/08/16 01:59:26;;;;;;;10.88;7.53;;;;;;;;;;5106577;28;20040;-86
2023/08/16 02:01:52;;;;;;;12.98;7.43;;;;;;;;;;5130315;28;20042;-87
2023/08/16 02:04:18;;;;;;;9.13;7.30;;;;;;;;;;5113786;28;20023;-86
2023/08/16 02:06:44;;;;;;;7.68;6.50;;;;;;;;;;5108491;28;20040;-86
2023/08/16 02:09:10;;;;;;;10.88;7.32;;;;;;;;;;5104544;28;20055;-85
2023/08/16 02:11:37;;;;;;;11.00;6.90;;;;;;;;;;5122654;28;20106;-84
2023/08/16 02:14:03;;;;;;;9.48;7.05;;;;;;;;;;5106474;28;20469;-84
2023/08/16 02:16:29;;;;;;;13.52;6.95;;;;;;;;;;5103068;28;20035;-85
2023/08/16 02:18:55;;;;;;;7.60;6.72;;;;;;;;;;5114639;28;20023;-86
2023/08/16 02:21:21;;;;;;;17.63;8.02;;;;;;;;;;5117640;28;20475;-86
2023/08/16 02:23:48;;;;;;;7.88;6.55;;;;;;;;;;5096081;28;20024;-85
2023/08/16 02:26:14;;;;;;;12.38;7.10;;;;;;;;;;5095759;28;20485;-83
2023/08/16 02:28:40;;;;;;;9.75;6.65;;;;;;;;;;5089270;28;20016;-83
2023/08/16 02:31:06;;;;;;;9.82;7.10;;;;;;;;;;5101859;28;20016;-84
2023/08/16 02:33:36;;;;;;;9.77;7.25;;;;;;;;;;5099484;28;20020;-86
2023/08/16 02:36:02;;;;;;;14.50;7.03;;;;;;;;;;5090720;28;20028;-85
2023/08/16 02:38:29;;;;;;;11.45;7.47;;;;;;;;;;5113871;28;20030;-86
2023/08/16 02:40:55;;;;;;;11.02;7.20;;;;;;;;;;5114646;28;20032;-84
2023/08/16 02:43:21;;;;;;;12.73;7.07;;;;;;;;;;5097869;28;20040;-86
2023/08/16 02:45:47;;;;;;;13.88;7.20;;;;;;;;;;5113015;28;20073;-84
2023/08/16 02:48:13;;;;;;;9.70;6.65;;;;;;;;;;5102576;28;20032;-85
2023/08/16 02:50:39;;;;;;;17.58;11.43;;;;;;;;;;5079352;28;20024;-86
2023/08/16 02:53:06;;;;;;;12.52;8.52;;;;;;;;;;5110179;28;20015;-84
2023/08/16 02:55:33;;;;;;;8.82;6.18;;;;;;;;;;5078665;28;20024;-85
2023/08/16 02:57:59;;;;;;;15.70;8.02;;;;;;;;;;5097218;28;20028;-85
2023/08/16 03:00:25;;;;;;;13.82;6.38;;;;;;;;;;5113041;28;20031;-84
2023/08/16 03:02:51;;;;;;;10.35;6.88;;;;;;;;;;5086918;28;20055;-85
2023/08/16 03:05:17;;;;;;;12.55;6.85;;;;;;;;;;5099167;28;20020;-85
2023/08/16 03:07:43;;;;;;;9.57;7.32;;;;;;;;;;5097507;28;20056;-84
2023/08/16 03:10:10;;;;;;;10.15;7.03;;;;;;;;;;5097051;28;20047;-84
2023/08/16 03:12:36;;;;;;;10.68;7.05;;;;;;;;;;5097109;28;20020;-87
2023/08/16 03:15:02;;;;;;;9.93;6.80;;;;;;;;;;5115590;28;20039;-86
2023/08/16 03:17:28;;;;;;;10.45;7.50;;;;;;;;;;5115087;28;20032;-84
2023/08/16 03:19:54;;;;;;;10.75;7.00;;;;;;;;;;5098855;28;20091;-85
2023/08/16 03:22:20;;;;;;;8.23;6.43;;;;;;;;;;5105587;28;20365;-85
2023/08/16 03:24:46;;;;;;;11.93;7.07;;;;;;;;;;5119556;28;20123;-83
2023/08/16 03:27:13;;;;;;;10.80;7.30;;;;;;;;;;5132979;28;20025;-84
2023/08/16 03:29:39;;;;;;;10.07;6.57;;;;;;;;;;5107907;28;20485;-85
2023/08/16 03:32:05;;;;;;;10.02;7.07;;;;;;;;;;5118786;28;20081;-85
2023/08/16 03:34:31;;;;;;;8.02;7.20;;;;;;;;;;5118305;28;20024;-84
2023/08/16 03:36:58;;;;;;;10.48;7.47;;;;;;;;;;5105538;28;20043;-86
2023/08/16 03:39:25;;;;;;;7.50;6.32;;;;;;;;;;5124992;28;20020;-87
2023/08/16 03:41:51;;;;;;;12.52;6.78;;;;;;;;;;5106807;28;20028;-86
2023/08/16 03:44:17;;;;;;;8.50;6.40;;;;;;;;;;5083809;28;20031;-86
2023/08/16 03:46:43;;;;;;;8.95;6.43;;;;;;;;;;5115555;28;20077;-86
2023/08/16 03:49:09;;;;;;;9.52;6.85;;;;;;;;;;5091068;28;20047;-85
2023/08/16 03:51:36;;;;;;;12.05;6.05;;;;;;;;;;5094654;28;20415;-87
2023/08/16 03:54:02;;;;;;;10.65;6.25;;;;;;;;;;5126892;28;20028;-86
2023/08/16 03:56:28;;;;;;;8.85;6.70;;;;;;;;;;5099655;28;20031;-87
2023/08/16 03:58:54;;;;;;;11.37;6.80;;;;;;;;;;5093144;28;20024;-85
2023/08/16 04:01:22;;;;;;;6.63;5.57;;;;;;;;;;5129563;28;20024;-86
2023/08/16 04:03:48;;;;;;;8.88;6.80;;;;;;;;;;5136429;28;20030;-85
2023/08/16 04:06:19;;;;;;;8.45;6.25;;;;;;;;;;5113965;28;20024;-86
2023/08/16 04:08:45;;;;;;;11.88;6.95;;;;;;;;;;5100137;28;20039;-86
2023/08/16 04:11:11;;;;;;;8.60;6.22;;;;;;;;;;5101818;28;20028;-86
2023/08/16 04:13:37;;;;;;;8.43;6.57;;;;;;;;;;5078590;28;20024;-85
2023/08/16 04:16:04;;;;;;;7.88;6.07;;;;;;;;;;5099698;28;20024;-86
2023/08/16 04:18:30;;;;;;;15.70;7.13;;;;;;;;;;5113997;28;20020;-86
2023/08/16 04:20:56;;;;;;;11.43;6.95;;;;;;;;;;5080824;28;20024;-84
2023/08/16 04:23:23;;;;;;;13.47;7.37;;;;;;;;;;5119449;28;20051;-85
2023/08/16 04:25:50;;;;;;;11.25;6.93;;;;;;;;;;5121610;28;20049;-85
2023/08/16 04:28:16;;;;;;;8.68;7.32;;;;;;;;;;5100053;28;20493;-85
2023/08/16 04:30:42;;;;;;;11.68;6.13;;;;;;;;;;5106290;28;20362;-87
2023/08/16 04:33:08;;;;;;;8.75;7.00;;;;;;;;;;5118350;28;20020;-87
2023/08/16 04:35:34;;;;;;;8.32;6.68;;;;;;;;;;5116141;28;20072;-86
2023/08/16 04:38:01;;;;;;;12.20;7.07;;;;;;;;;;5099311;28;20837;-86
2023/08/16 04:40:27;;;;;;;10.68;5.97;;;;;;;;;;5092767;28;20023;-85
2023/08/16 04:42:53;;;;;;;9.38;5.75;;;;;;;;;;5077927;28;20039;-86
2023/08/16 04:45:19;;;;;;;7.97;5.90;;;;;;;;;;5108952;28;20031;-89
2023/08/16 04:47:45;;;;;;;10.48;6.15;;;;;;;;;;5112924;28;20465;-88
2023/08/16 04:50:11;;;;;;;12.48;5.82;;;;;;;;;;5106428;28;20097;-88
2023/08/16 04:52:38;;;;;;;9.18;5.47;;;;;;;;;;5100146;28;20046;-89
2023/08/16 04:55:08;;;;;;;14.10;7.00;;;;;;;;;;5090109;28;20024;-89
2023/08/16 04:57:34;;;;;;;12.68;8.55;;;;;;;;;;5095164;28;20035;-89
2023/08/16 05:00:04;;;;;;;9.43;6.67;;;;;;;;;;5096058;28;20096;-88
2023/08/16 05:02:30;;;;;;;10.63;6.40;;;;;;;;;;5100079;28;20035;-86
2023/08/16 05:04:56;;;;;;;10.48;5.88;;;;;;;;;;5112493;28;20075;-86
2023/08/16 05:07:22;;;;;;;9.95;5.78;;;;;;;;;;5110273;28;20110;-88
2023/08/16 05:09:48;;;;;;;12.95;5.80;;;;;;;;;;5115723;28;20050;-87
2023/08/16 05:12:14;;;;;;;10.85;5.38;;;;;;;;;;5121867;28;20058;-89
2023/08/16 05:14:40;;;;;;;11.10;5.30;;;25.70;56.00;;;;;;5124180;28;20106;-89
2023/08/16 05:17:06;;;;;;;9.10;5.40;;;28.70;67.30;;;;;;5109614;28;20035;-89
2023/08/16 05:19:32;;;;;;;11.73;5.75;;;29.00;65.60;;;;;;5101908;28;20056;-89
2023/08/16 05:21:58;;;;;;;10.43;5.43;;;;;;;;;;5122142;28;20058;-88
2023/08/16 05:24:24;;;;;;;14.02;5.88;;;29.20;64.30;;;;;;5098408;28;20019;-88
2023/08/16 05:26:50;;;;;;;11.43;5.53;;;;;;;;;;5100097;28;20046;-86
2023/08/16 05:29:16;;;;;;;8.85;4.53;;;;;;;;;;5092574;28;20119;-90
2023/08/16 05:31:43;;;;;;;15.27;6.20;;;;;;;;;;5106267;28;20072;-89
2023/08/16 05:34:09;;;;;;;8.25;5.30;;;;;;;;;;5109558;28;20028;-87
2023/08/16 05:36:45;;;;;;;9.07;4.47;;;;;;;;;;5100742;28;20028;-86
2023/08/16 05:39:11;;;;;;;7.40;4.82;;;31.60;56.60;;;;;;5116466;28;20024;-88
2023/08/16 05:41:39;;;;;;;7.88;5.10;;;31.80;55.60;;;;;;5090737;28;20050;-89
2023/08/16 05:44:24;;;;;;;6.82;4.90;;;32.10;55.40;;;;;;5122516;28;20020;-92
2023/08/16 05:46:50;;;;;;;9.93;5.05;;;32.90;53.90;;;;;;5100834;28;20050;-87
2023/08/16 05:49:16;;;;;;;6.82;4.50;;;33.40;52.60;;;;;;5113177;22;20089;-86
2023/08/16 05:51:42;;;;;;;11.57;5.00;;;33.90;51.90;;;;;;5065417;28;20486;-86
2023/08/16 05:54:08;;;;;;;6.47;4.23;;;34.70;51.70;;;;;;5058097;28;20033;-85
2023/08/16 05:56:34;;;;;;;10.37;4.30;;;35.40;49.40;;;;;;5040492;28;20075;-87
2023/08/16 05:58:59;;;;;;;7.70;4.10;;;35.60;48.50;;;;;;5046518;28;20025;-85
2023/08/16 06:01:25;;;;;;;7.80;4.03;;;35.90;48.10;;;;;;5048562;28;20025;-85
2023/08/16 06:03:51;;;;;;;9.53;3.80;;;36.20;46.80;;;;;;5064640;28;20071;-85
2023/08/16 06:06:17;;;;;;;7.20;3.93;;;36.00;46.00;;;;;;5061366;28;20029;-84
2023/08/16 06:08:45;;;;;;;8.87;3.70;;;35.30;46.40;;;;;;5041801;28;20292;-85
2023/08/16 06:11:10;;;;;;;5.85;3.15;;;34.80;47.10;;;;;;5057180;28;20029;-84
2023/08/16 06:13:36;;;;;;;6.83;3.27;;;35.20;46.70;;;;;;5064134;28;20017;-85
2023/08/16 06:16:03;;;;;;;12.17;3.63;;;35.30;46.60;;;;;;5063320;28;20028;-86
2023/08/16 06:18:29;;;;;;;4.90;3.05;;;36.00;46.00;;;;;;5061613;28;20574;-85
2023/08/16 06:20:55;;;;;;;3.43;2.47;;;36.80;44.50;;;;;;5062698;28;20040;-83
2023/08/16 06:23:21;;;;;;;4.85;2.55;;;36.60;43.70;;;;;;5040452;28;20037;-86
2023/08/16 06:25:46;;;;;;;5.03;2.78;;;36.30;44.60;;;;;;5055416;28;20024;-85
2023/08/16 06:28:12;;;;;;;4.35;3.05;;;36.70;44.00;;;;;;5053861;28;20032;-86
2023/08/16 06:30:38;;;;;;;3.72;3.13;;;36.50;43.80;;;;;;5036194;28;20029;-84
2023/08/16 06:33:05;;;;;;;5.05;3.38;;;36.20;43.50;;;;;;5037084;28;20025;-85
2023/08/16 06:35:32;;;;;;;7.22;4.00;;;36.10;44.40;;;;;;5061292;28;20021;-85
2023/08/16 06:37:58;;;;;;;3.90;2.67;;;36.50;43.80;;;;;;5035503;28;20033;-86
2023/08/16 06:40:24;;;;;;;7.82;3.35;;;37.30;43.10;;;;;;5059933;28;20028;-84
2023/08/16 06:42:50;;;;;;;8.27;3.60;;;38.30;42.50;;;;;;5062589;28;20035;-87
2023/08/16 06:45:16;;;;;;;4.47;3.13;;;39.20;41.50;;;;;;5059654;28;20432;-85
2023/08/16 06:47:42;;;;;;;7.60;2.92;;;39.40;40.20;;;;;;5059901;28;20033;-84
2023/08/16 06:50:08;;;;;;;;;;;39.00;40.10;;;;;;5053693;28;20041;-83
2023/08/16 06:52:34;;;;;;;7.10;2.55;;;38.50;41.10;;;;;;5009875;28;19906;-86
2023/08/16 06:55:01;;;;;;;4.38;2.78;;;38.20;41.00;;;;;;5027324;28;20037;-84
2023/08/16 06:57:26;;;;;;;;;;;38.50;40.20;;;;;;5039269;28;20033;-86
2023/08/16 06:59:52;;;;;;;;;;;38.00;41.50;;;;;;5051476;28;20363;-85
2023/08/16 07:02:20;;;;;;;5.47;2.92;;;37.80;42.10;;;;;;5051733;28;19908;-83
2023/08/16 07:04:46;;;;;;;9.30;2.28;;;36.30;41.10;;;;;;5048101;28;20423;-85
2023/08/16 07:07:12;;;;;;;4.35;2.40;;;35.30;42.40;;;;;;5019133;28;20030;-87
2023/08/16 07:09:38;;;;;;;5.88;2.60;;;34.80;43.40;;;;;;5054432;28;20524;-85
2023/08/16 07:12:05;;;;;;;5.30;2.50;;;34.00;44.00;;;;;;5029448;28;20022;-86
2023/08/16 07:14:31;;;;;;;5.65;2.33;;;33.90;45.00;;;;;;5024887;28;20042;-84
2023/08/16 07:16:57;;;;;;;3.03;2.00;;;35.00;44.40;;;;;;5035861;28;20049;-85
2023/08/16 07:19:23;;;;;;;4.47;2.17;;;36.30;42.20;;;;;;5031278;28;20030;-86
2023/08/16 07:21:49;;;;;;;4.30;2.85;;;36.30;40.20;;;;;;5041231;28;20053;-86
2023/08/16 07:24:15;;;;;;;6.75;2.40;;;36.30;41.20;;;;;;5050595;28;20033;-87
2023/08/16 07:26:41;;;;;;;5.78;1.92;;;37.10;40.30;;;;;;5040132;28;20027;-85
2023/08/16 07:29:07;;;;;;;8.70;2.40;;;37.70;39.00;;;;;;5020438;28;20033;-86
2023/08/16 07:31:33;;;;;;;3.85;2.30;;;37.70;39.40;;;;;;5039491;28;20025;-85
2023/08/16 07:33:59;;;;;;;5.07;2.80;;;38.30;39.00;;;;;;5024107;28;20083;-87
2023/08/16 07:36:25;;;;;;;3.58;2.70;;;39.30;38.30;;;;;;5033486;28;20018;-86
2023/08/16 07:38:51;;;;;;;4.05;2.22;;;40.00;37.10;;;;;;5024344;28;20042;-87
2023/08/16 07:41:18;;;;;;;10.40;2.10;;;40.30;36.10;;;;;;5040784;28;20036;-85
2023/08/16 07:43:44;;;;;;;5.10;1.95;;;40.40;36.50;;;;;;5044695;28;20148;-86
2023/08/16 07:46:10;;;;;;;9.02;2.15;;;40.30;35.80;;;;;;5013660;28;20022;-85
2023/08/16 07:48:36;;;;;;;8.85;1.92;;;39.70;35.90;;;;;;5046526;28;20036;-86
2023/08/16 07:51:01;;;;;;;3.40;1.83;;;39.60;36.50;;;;;;5038705;28;20057;-86
2023/08/16 07:53:27;;;;;;;4.15;2.03;;;39.20;36.40;;;;;;5020913;28;20076;-86
2023/08/16 07:55:53;;;;;;;5.95;2.20;;;38.60;37.10;;;;;;5035045;28;20022;-86
2023/08/16 07:58:19;;;;;;;4.25;1.67;;;38.10;37.40;;;;;;5038927;28;20480;-86
2023/08/16 08:00:48;;;;;;;6.82;2.28;;;38.10;37.50;;;;;;5043899;28;20045;-84
2023/08/16 08:03:15;;;;;;;5.32;2.10;;;38.30;37.70;;;;;;5040314;28;20128;-87
2023/08/16 08:05:41;;;;;;;6.32;2.20;;;38.30;37.60;;;;;;5026532;28;20026;-88
2023/08/16 08:08:07;;;;;;;4.25;1.85;;;39.10;37.60;;;;;;5026765;28;20368;-87
2023/08/16 08:10:33;;;;;;;6.13;2.15;;;;;;;;;;5027132;28;20084;-87
2023/08/16 08:12:59;;;;;;;3.20;1.50;;;40.20;36.70;;;;;;5036078;28;20034;-87
2023/08/16 08:15:26;;;;;;;5.22;1.70;;;41.90;34.60;;;;;;5029784;28;20545;-88
2023/08/16 08:17:52;;;;;;;2.25;1.58;;;42.10;34.20;;;;;;5013447;28;20041;-86
2023/08/16 08:20:18;;;;;;;;;;;41.60;34.30;;;;;;5016028;28;20048;-87
2023/08/16 08:22:44;;;;;;;5.85;2.33;;;40.90;35.00;;;;;;5033346;28;19976;-85
2023/08/16 08:25:10;;;;;;;3.88;1.75;;;40.50;35.20;;;;;;4999582;28;20022;-88
2023/08/16 08:27:37;;;;;;;;;;;40.60;35.20;;;;;;5017606;28;20030;-85
2023/08/16 08:30:04;;;;;;;5.20;1.60;;;40.80;34.20;;;;;;5035254;28;19959;-85
2023/08/16 08:32:30;;;;;;;2.67;2.00;;;40.30;34.80;;;;;;5044149;28;20033;-88
2023/08/16 08:34:56;;;;;;;4.05;1.80;;;40.40;35.10;;;;;;5027188;28;20025;-87
2023/08/16 08:37:23;;;;;;;4.07;1.73;;;39.90;35.10;;;;;;5035520;28;20375;-86
2023/08/16 08:39:49;;;;;;;5.10;2.20;;;40.00;35.60;;;;;;5051150;28;20029;-87
2023/08/16 08:42:15;;;;;;;6.20;1.60;;;40.50;35.10;;;;;;5040891;28;20502;-86
2023/08/16 08:44:44;;;;;;;7.05;2.30;;;40.90;34.40;;;;;;5029325;28;20041;-87
2023/08/16 08:47:10;;;;;;;2.00;1.50;;;40.80;34.40;;;;;;5027079;28;20364;-89
2023/08/16 08:49:37;;;;;;;2.53;1.90;;;41.00;34.50;;;;;;5006790;28;20033;-86
2023/08/16 08:52:04;;;;;;;5.70;2.10;;;40.90;34.60;;;;;;5019041;28;20048;-90
2023/08/16 08:54:31;;;;;;;6.00;3.22;;;41.60;34.50;;;;;;5033234;28;20018;-85
2023/08/16 08:57:02;;;;;;;4.65;1.85;;;42.10;33.70;;;;;;5009411;28;20033;-87
2023/08/16 08:59:33;;;;;;;5.72;2.20;;;41.40;33.30;;;;;;5035301;28;20048;-88
2023/08/16 09:02:00;;;;;;;6.05;2.38;;;40.90;34.70;;;;;;5045879;28;20018;-85
2023/08/16 09:04:28;;;;;;;2.60;1.75;;;41.00;34.30;;;;;;5050481;28;20051;-89
2023/08/16 09:06:55;;;;;;;4.93;2.45;;;41.30;34.20;;;;;;5018788;28;20045;-86
2023/08/16 09:09:22;;;;;;;4.00;2.03;;;41.30;34.10;;;;;;5023367;28;20025;-86
2023/08/16 09:11:48;;;;;;;3.30;2.13;;;41.30;34.30;;;;;;5018463;28;20017;-88
2023/08/16 09:14:14;;;;;;;;;;;41.60;34.20;;;;;;5003540;28;20080;-87
2023/08/16 09:16:40;;;;;;;3.20;1.70;;;41.80;34.90;;;;;;5021609;28;19912;-88
2023/08/16 09:19:13;;;;;;;;;;;41.60;33.70;;;;;;5022601;28;20102;-88
2023/08/16 09:21:41;;;;;;;2.72;1.95;;;41.10;34.90;;;;;;5033139;28;19904;-87
2023/08/16 09:24:07;;;;;;;4.45;2.17;;;40.70;34.90;;;;;;5025758;28;20474;-88
2023/08/16 09:26:35;;;;;;;4.63;1.75;;;40.50;34.80;;;;;;5018939;28;20021;-88
2023/08/16 09:29:05;;;;;;;3.20;2.10;;;40.50;34.60;;;;;;5019147;28;20032;-89
2023/08/16 09:31:38;;;;;;;6.22;2.75;;;40.80;34.60;;;;;;4968114;28;20111;-88
2023/08/16 09:34:05;;;;;;;8.68;3.78;;;40.30;34.40;;;;;;4993172;28;20039;-88
2023/08/16 09:36:33;;;;;;;6.10;2.50;;;38.50;36.00;;;;;;4990343;28;20035;-88
2023/08/16 09:39:04;;;;;;;4.07;2.80;;;37.80;37.20;;;;;;4999555;28;20030;-86
2023/08/16 09:41:31;;;;;;;6.32;2.75;;;37.90;37.30;;;;;;4991074;28;20089;-87
2023/08/16 09:44:04;;;;;;;9.98;4.05;;;38.60;37.00;;;;;;4974405;28;20236;-88
2023/08/16 09:46:31;;;;;;;4.97;3.05;;;38.50;36.90;;;;;;4966853;28;20063;-87
2023/08/16 09:49:08;;;;;;;4.60;2.63;;;38.60;36.80;;;;;;4973092;28;20041;-88
2023/08/16 09:51:41;;;;;;;4.78;2.65;;;38.90;36.20;;;;;;4981983;28;20062;-90
2023/08/16 09:54:16;;;;;;;6.03;4.68;;;39.00;36.10;;;;;;4981674;28;20137;-89
2023/08/16 09:56:47;;;;;;;3.63;2.47;;;38.40;36.60;;;;;;4968730;28;20031;-84
2023/08/16 09:59:14;;;;;;;3.72;2.40;;;37.80;37.40;;;;;;4955986;28;20019;-87
2023/08/16 10:01:40;;;;;;;6.15;2.75;;;37.70;37.50;;;;;;4976582;28;20036;-89
2023/08/16 10:04:07;;;;;;;;;;;38.30;37.90;;;;;;5058239;28;20072;-87
2023/08/16 10:06:34;;;;;;;5.72;2.80;;;38.40;37.10;;;;;;5050973;28;19916;-88
2023/08/16 10:09:09;;;;;;;5.53;3.35;;;38.40;36.90;;;;;;5055726;28;20021;-88
2023/08/16 10:11:37;;;;;;;5.63;2.53;;;38.10;37.00;;;;;;5057704;28;20056;-88
2023/08/16 10:14:06;;;;;;;4.57;2.83;;;37.60;36.70;;;;;;5036730;28;20040;-89
2023/08/16 10:16:34;;;;;;;3.80;2.38;;;36.20;37.30;;;;;;5027951;28;20028;-87
2023/08/16 10:19:02;;;;;;;5.18;2.30;;;35.20;39.40;;;;;;5056879;28;20034;-86
2023/08/16 10:21:30;;;;;;;5.90;3.15;;;35.80;39.90;;;;;;5025762;28;20036;-89
2023/08/16 10:23:56;;;;;;;5.72;2.83;;;36.80;38.80;;;;;;5032866;28;20120;-89
2023/08/16 10:26:25;;;;;;;;;;;37.00;38.50;;;;;;5025080;28;20017;-88
2023/08/16 10:28:57;;;;;;;6.88;2.72;;;36.70;38.70;;;;;;5033936;28;20000;-86
2023/08/16 10:31:32;;;;;;;7.40;4.03;;;35.60;39.20;;;;;;5024355;28;20022;-90
2023/08/16 10:33:59;;;;;;;5.05;2.78;;;;;;;;;;4997957;28;20038;-88
2023/08/16 10:36:25;;;;;;;;;;;;;;;;;;5040503;28;20140;-85
2023/08/16 10:38:55;;;;;;;5.07;2.47;;;;;;;;;;5018624;28;19905;-86
2023/08/16 10:41:21;;;;;;;6.15;3.33;;;34.40;40.40;;;;;;5018992;28;20115;-87
2023/08/16 10:43:53;;;;;;;5.65;3.20;;;31.00;45.40;;;;;;5019311;28;20038;-86
2023/08/16 10:46:38;;;;;;;7.88;3.17;;;30.30;46.50;;;;;;5034251;28;20017;-88
2023/08/16 10:49:08;;;;;;;4.75;3.13;;;29.70;47.70;;;;;;5012258;28;20025;-88
2023/08/16 10:51:47;;;;;;;8.55;3.60;;;29.40;48.60;;;;;;5030159;28;20050;-85
2023/08/16 10:54:15;;;;;;;5.07;3.42;;;29.10;49.10;;;;;;5021199;28;20029;-87
2023/08/16 10:56:49;;;;;;;6.18;3.30;;;28.90;49.60;;;;;;4956252;28;20027;-86
2023/08/16 10:59:16;;;;;;;5.30;3.00;;;28.50;50.40;;;;;;4952308;28;20027;-86
2023/08/16 11:01:49;;;;;;;5.68;3.15;;;28.10;51.00;;;;;;4958017;28;20035;-87
2023/08/16 11:04:15;;;;;;;4.90;3.17;;;27.70;51.70;;;;;;4963633;28;20034;-87
2023/08/16 11:06:41;;;;;;;6.07;3.33;;;27.60;52.40;;;;;;4972447;28;20117;-88
2023/08/16 11:09:07;;;;;;;7.07;3.25;;;27.60;52.60;;;;;;4970835;28;20047;-86
2023/08/16 11:11:34;;;;;;;6.35;2.78;;;27.70;52.30;;;;;;4967140;28;20035;-91
2023/08/16 11:14:00;;;;;;;6.45;3.85;;;27.90;52.40;;;;;;4965432;28;20034;-88
2023/08/16 11:16:27;;;;;;;3.92;2.95;;;28.00;51.60;;;;;;4979860;28;20038;-86
2023/08/16 11:18:53;;;;;;;8.98;4.38;;;27.90;50.90;;;;;;4975963;28;20045;-86
2023/08/16 11:21:20;;;;;;;9.20;3.78;;;;;;;;;;4971956;28;20089;-90
2023/08/16 11:23:46;;;;;;;3.65;2.90;;;;;;;;;;4973205;28;20233;-87
2023/08/16 11:26:13;;;;;;;4.20;3.37;;;;;;;;;;4963396;28;20033;-86
2023/08/16 11:28:40;;;;;;;6.47;3.00;;;;;;;;;;5035028;28;20367;-86
2023/08/16 11:31:07;;;;;;;7.82;3.10;;;;;;;;;;5038006;28;20021;-85
2023/08/16 11:33:37;;;;;;;12.85;4.47;;;;;;;;;;5068000;28;20013;-86
2023/08/16 11:36:12;;;;;;;4.65;3.20;;;;;;;;;;5057781;28;20104;-88
2023/08/16 11:38:39;;;;;;;7.00;6.10;;;;;;;;;;5029726;28;20587;-87
2023/08/16 11:41:06;;;;;;;7.38;3.67;;;;;;;;;;5040002;28;20025;-85
2023/08/16 11:43:33;;;;;;;7.18;3.58;;;;;;;;;;5012439;28;20037;-86
2023/08/16 11:45:59;;;;;;;;;;;;;;;;;;5021926;28;20041;-88
2023/08/16 11:48:26;;;;;;;7.15;4.93;;;;;;;;;;5019955;28;19905;-88
2023/08/16 11:50:52;;;;;;;11.77;4.20;;;;;;;;;;5050691;28;20045;-87
2023/08/16 11:53:19;;;;;;;5.65;3.38;;;;;;;;;;5024060;28;20036;-86
2023/08/16 11:55:58;;;;;;;7.22;3.40;;;;;;;;;;5031073;28;20030;-85
2023/08/16 11:58:25;;;;;;;5.53;4.00;;;;;;;;;;5038946;28;20109;-86
2023/08/16 12:00:51;;;;;;;6.75;2.90;;;;;;;;;;5018695;28;20108;-88
2023/08/16 12:03:18;;;;;;;5.85;2.88;;;;;;;;;;5041253;28;20037;-87
2023/08/16 12:05:49;;;;;;;6.30;3.42;;;;;;;;;;5057095;28;20029;-88
2023/08/16 12:08:26;;;;;;;5.55;3.00;;;;;;;;;;5033139;28;20048;-87
2023/08/16 12:10:56;;;;;;;5.50;3.75;;;;;;;;;;5051001;28;20034;-86
2023/08/16 12:13:22;;;;;;;11.57;3.63;;;;;;;;;;5032819;28;20051;-86
2023/08/16 12:15:48;;;;;;;4.82;3.30;;;;;;;;;;5033925;28;20022;-86
2023/08/16 12:18:15;;;;;;;8.30;3.53;;;;;;;;;;5020712;28;20033;-87
2023/08/16 12:20:41;;;;;;;5.90;3.30;;;;;;;;;;5019959;28;20025;-87
2023/08/16 12:23:09;;;;;;;4.57;3.05;;;;;;;;;;5018329;28;20095;-88
2023/08/16 12:25:35;;;;;;;;;;;;;;;;;;5058661;28;20013;-88
2023/08/16 12:28:01;;;;;;;7.53;3.43;;;;;;;;;;5019978;28;19911;-87
2023/08/16 12:30:30;;;;;;;7.68;3.05;;;;;;;;;;5067057;28;20258;-86
2023/08/16 12:32:56;;;;;;;5.10;3.00;;;;;;;;;;5049488;28;20418;-86
2023/08/16 12:35:22;;;;;;;8.00;3.58;;;;;;;;;;5017928;28;20082;-87
2023/08/16 12:37:49;;;;;;;6.13;3.25;;;;;;;;;;5029337;28;20066;-86
2023/08/16 12:40:15;;;;;;;11.90;6.85;;;;;;;;;;5042482;28;20030;-88
2023/08/16 12:42:41;;;;;;;6.95;3.15;;;;;;;;;;5026376;28;20033;-85
2023/08/16 12:45:07;;;;;;;5.38;2.72;;;;;;;;;;5054545;28;20033;-85
2023/08/16 12:47:33;;;;;;;7.40;3.07;;;;;;;;;;5042833;28;20033;-85
2023/08/16 12:50:00;;;;;;;5.28;3.75;;;;;;;;;;5020200;28;20306;-86
2023/08/16 12:52:27;;;;;;;5.93;3.15;;;;;;;;;;5025123;28;20071;-86
2023/08/16 12:54:53;;;;;;;6.35;2.90;;;;;;;;;;5048365;28;20017;-88
2023/08/16 12:57:19;;;;;;;4.27;2.73;;;;;;;;;;5036264;28;20033;-85
2023/08/16 12:59:46;;;;;;;4.35;2.72;;;;;;;;;;5032824;28;20018;-85
2023/08/16 13:02:13;;;;;;;7.35;3.13;;;;;;;;;;5030238;28;20078;-87
2023/08/16 13:04:39;;;;;;;5.18;2.92;;;;;;;;;;5024387;28;20060;-88
2023/08/16 13:07:06;;;;;;;5.88;2.80;;;;;;;;;;5039633;28;20024;-87
2023/08/16 13:09:33;;;;;;;6.90;3.03;;;;;;;;;;5021172;28;20032;-86
2023/08/16 13:11:59;;;;;;;3.25;2.92;;;;;;;;;;5046349;28;20025;-87
2023/08/16 13:14:27;;;;;;;6.37;2.80;;;;;;;;;;5044042;28;20025;-89
2023/08/16 13:16:53;;;;;;;4.65;3.05;;;;;;;;;;5037011;28;20117;-85
2023/08/16 13:19:19;;;;;;;5.85;3.33;;;;;;;;;;5025146;28;20017;-86
2023/08/16 13:21:47;;;;;;;3.25;2.47;;;;;;;;;;5041148;28;20475;-86
2023/08/16 13:24:14;;;;;;;5.53;3.00;;;;;;;;;;5031086;28;20037;-86
2023/08/16 13:26:40;;;;;;;4.40;2.65;;;;;;;;;;5013228;28;20044;-88
2023/08/16 13:29:11;;;;;;;3.10;2.50;;;;;;;;;;5037682;28;20045;-86
2023/08/16 13:31:37;;;;;;;7.70;3.30;;;;;;;;;;5054120;28;20030;-86
2023/08/16 13:34:07;;;;;;;5.63;3.22;;;;;;;;;;5049882;28;20029;-86
2023/08/16 13:36:33;;;;;;;4.35;2.75;;;;;;;;;;5038543;28;20045;-89
2023/08/16 13:39:00;;;;;;;5.00;2.65;;;;;;;;;;5038593;28;20021;-87
2023/08/16 13:41:26;;;;;;;5.07;2.60;;;;;;;;;;5022307;28;20071;-88
2023/08/16 13:43:52;;;;;;;5.17;2.90;;;;;;;;;;5008935;28;20506;-87
2023/08/16 13:46:18;;;;;;;9.93;3.28;;;;;;;;;;5038059;28;20029;-86
2023/08/16 13:48:44;;;;;;;6.10;3.00;;;;;;;;;;5009844;28;20037;-86
2023/08/16 13:51:11;;;;;;;5.95;3.38;;;;;;;;;;5046252;28;20072;-86